Terminal Aerodrome Forecast
Issued by NWS Corpus Christi, TX

Home | Current Version | Previous Version | Text Only | Print | Product List | Glossary On
Versions: 1 2 3 4 5 6 7 8 9 10 11 12 13 14 15 16 17 18 19 20 21 22 23 24
183
FTUS44 KCRP 210819 AAB
TAFCRP
TAF AMD
KCRP 210819Z 2108/2206 17012KT 6SM BR BKN008 OVC014
      TEMPO 2108/2110 4SM BR OVC008
     FM211000 16012KT 3SM BR BKN006 OVC012
      TEMPO 2110/2114 1SM BR OVC005
     FM211630 17015G20KT P6SM BKN009 OVC015
     FM212200 16012G18KT P6SM BKN020
     FM220400 18007KT 5SM BR SCT006 OVC015=

USA.gov is the U.S. government's official web portal to all federal, state and local government web resources and services.